フィレンツェ の空港の天気 - METARとTAF

フィレンツェ・ペレトラ空港 ( LIRQ / FLR ) - イタリア フィレンツェ
飛行場実況気象(Metar)
観測時間09/19 00:50 CEST (09/18 22:50 UTC)
風向・風速東南東 2m/s
視程10km以上
天気現象
なし
気温19℃
湿度94%
気圧1013hPa
METARLIRQ 182250Z 12004KT CAVOK 19/18 Q1013
過去の天気等 Google飛行場航空写真 Wunderground天気予報

過去48時間のMETAR

飛行場予報(TAF)
発表時間: 9/18 19:00 CEST (9/18 17:00 UTC)
予報対象時間: 18日20時 CEST ~ 19日20時 CEST
風向・風速不定 3m/s
視程10km以上
全天の4割程度の雲 雲底高度 910m
19日6時 CEST ~ 19日14時 CEST に一時的に
視程4000m
天気現象雷雨
19日11時 CEST ~ 19日13時 CEST に徐々に
風向・風速西南西 7m/s
TAF LIRQ 181700Z 1818/1918 VRB06KT 9999 SCT030
TEMPO 1904/1912 4000 TSRA
BECMG 1909/1911 25014KT